Time,TemperatureF,DewpointF,PressureIn,WindDirection,WindDirectionDegrees,WindSpeedMPH,WindSpeedGustMPH,Humidity,HourlyPrecipIn,Conditions,Clouds,dailyrainin,SolarRadiationWatts/m^2,SoftwareType,DateUTC
2013-08-18 00:00:00,66.4,45.6,29.60,South,171,1.0,6.0,47,0.00,,SKC,0.00,0.00,VWS V14.01,2013-08-18 06:00:00,
2013-08-18 00:06:00,64.8,45.2,29.59,South,188,1.0,4.0,49,0.00,,SKC,0.00,0.00,VWS V14.01,2013-08-18 06:06:00,
2013-08-18 00:12:00,64.8,45.2,29.59,South,175,7.0,8.0,49,0.00,,SKC,0.00,0.00,VWS V14.01,2013-08-18 06:12:00,
2013-08-18 00:15:00,65.5,45.3,29.60,SSW,194,2.0,6.0,48,0.00,,SKC,0.00,0.00,VWS V14.01,2013-08-18 06:15:00,
2013-08-18 00:19:00,64.7,45.1,29.59,South,175,5.0,10.0,49,0.00,,SKC,0.00,0.00,VWS V14.01,2013-08-18 06:19:00,
2013-08-18 00:24:00,64.8,45.2,29.59,SSW,192,5.0,10.0,49,0.00,,SKC,0.00,0.00,VWS V14.01,2013-08-18 06:24:00,
2013-08-18 00:30:00,64.9,44.8,29.60,SSW,204,6.0,10.0,48,0.00,,SKC,0.00,0.00,VWS V14.01,2013-08-18 06:30:00,
2013-08-18 00:35:00,64.9,45.3,29.60,SSE,155,4.0,11.0,49,0.00,,SKC,0.00,0.00,VWS V14.01,2013-08-18 06:35:00,
2013-08-18 00:41:00,64.7,45.1,29.60,SSE,167,2.0,11.0,49,0.00,,SKC,0.00,0.00,VWS V14.01,2013-08-18 06:41:00,
2013-08-18 00:45:00,64.6,45.6,29.62,SSE,164,5.0,9.0,50,0.00,,SKC,0.00,0.00,VWS V14.01,2013-08-18 06:45:00,
2013-08-18 00:46:00,64.4,45.4,29.60,SSE,159,6.0,11.0,50,0.00,,SKC,0.00,0.00,VWS V14.01,2013-08-18 06:46:00,
2013-08-18 00:52:00,64.1,45.1,29.61,South,172,4.0,7.0,50,0.00,,SKC,0.00,0.00,VWS V14.01,2013-08-18 06:52:00,
2013-08-18 00:59:00,64.0,45.0,29.61,South,188,4.0,7.0,50,0.00,,SKC,0.00,0.00,VWS V14.01,2013-08-18 06:59:00,
2013-08-18 01:00:00,64.8,45.2,29.62,SW,218,4.0,9.0,49,0.00,,SKC,0.00,0.00,VWS V14.01,2013-08-18 07:00:00,
2013-08-18 01:05:00,63.8,45.3,29.57,SSW,200,6.0,8.0,51,0.00,,SKC,0.00,0.00,VWS V14.01,2013-08-18 07:05:00,
2013-08-18 01:15:00,64.7,45.1,29.59,SW,221,4.0,9.0,49,0.00,,SKC,0.00,0.00,VWS V14.01,2013-08-18 07:15:00,
2013-08-18 01:29:00,63.4,45.0,29.57,South,175,4.0,8.0,51,0.00,,SKC,0.00,0.00,VWS V14.01,2013-08-18 07:29:00,
2013-08-18 01:30:00,64.9,44.8,29.60,SSW,203,6.0,10.0,48,0.00,,SKC,0.00,0.00,VWS V14.01,2013-08-18 07:30:00,
2013-08-18 01:34:00,63.4,45.0,29.57,SSE,168,3.0,5.0,51,0.00,,SKC,0.00,0.00,VWS V14.01,2013-08-18 07:34:00,
2013-08-18 01:41:00,63.3,44.9,29.57,SSE,167,4.0,5.0,51,0.00,,SKC,0.00,0.00,VWS V14.01,2013-08-18 07:41:00,
2013-08-18 01:45:00,64.4,45.4,29.60,SSE,159,6.0,11.0,50,0.00,,SKC,0.00,0.00,VWS V14.01,2013-08-18 07:45:00,
2013-08-18 01:46:00,63.0,45.1,29.58,South,171,1.0,5.0,52,0.00,,SKC,0.00,0.00,VWS V14.01,2013-08-18 07:46:00,
2013-08-18 01:53:00,62.5,44.7,29.57,South,171,3.0,5.0,52,0.00,,SKC,0.00,0.00,VWS V14.01,2013-08-18 07:53:00,
2013-08-18 01:59:00,62.3,44.5,29.59,South,172,2.0,5.0,52,0.00,,SKC,0.00,0.00,VWS V14.01,2013-08-18 07:59:00,
2013-08-18 02:00:00,63.9,44.9,29.61,South,172,4.0,7.0,50,0.00,,SKC,0.00,0.00,VWS V14.01,2013-08-18 08:00:00,
2013-08-18 02:06:00,61.9,44.6,29.60,South,172,0.0,2.0,53,0.00,,SKC,0.00,0.00,VWS V14.01,2013-08-18 08:06:00,
2013-08-18 02:12:00,61.7,44.9,29.61,South,172,0.0,2.0,54,0.00,,SKC,0.00,0.00,VWS V14.01,2013-08-18 08:12:00,
2013-08-18 02:20:00,61.3,44.5,29.61,South,172,0.0,0.0,54,0.00,,SKC,0.00,0.00,VWS V14.01,2013-08-18 08:20:00,
2013-08-18 02:26:00,61.1,44.8,29.60,South,172,0.0,1.0,55,0.00,,SKC,0.00,0.00,VWS V14.01,2013-08-18 08:26:00,
2013-08-18 02:30:00,63.4,45.0,29.57,SSE,167,5.0,9.0,51,0.00,,SKC,0.00,0.00,VWS V14.01,2013-08-18 08:30:00,
2013-08-18 02:32:00,60.6,44.4,29.61,South,172,0.0,0.0,55,0.00,,SKC,0.00,0.00,VWS V14.01,2013-08-18 08:32:00,
2013-08-18 02:38:00,60.1,44.4,29.61,South,172,1.0,2.0,56,0.00,,SKC,0.00,0.00,VWS V14.01,2013-08-18 08:38:00,
2013-08-18 02:45:00,59.4,43.7,29.61,South,172,0.0,2.0,56,0.00,,SKC,0.00,0.00,VWS V14.01,2013-08-18 08:45:00,
2013-08-18 02:54:00,58.7,44.0,29.62,SSW,206,2.0,5.0,58,0.00,,SKC,0.00,0.00,VWS V14.01,2013-08-18 08:54:00,
2013-08-18 03:00:00,62.2,44.4,29.59,South,172,0.0,5.0,52,0.00,,SKC,0.00,0.00,VWS V14.01,2013-08-18 09:00:00,
2013-08-18 03:03:00,58.2,44.0,29.63,SSW,206,0.0,5.0,59,0.00,,SKC,0.00,0.00,VWS V14.01,2013-08-18 09:03:00,
2013-08-18 03:09:00,57.9,44.5,29.63,SSW,205,3.0,7.0,61,0.00,,SKC,0.00,0.00,VWS V14.01,2013-08-18 09:09:00,
2013-08-18 03:15:00,57.6,43.8,29.64,SSW,206,6.0,7.0,60,0.00,,SKC,0.00,0.00,VWS V14.01,2013-08-18 09:15:00,
2013-08-18 03:22:00,57.5,43.7,29.63,SSW,200,2.0,7.0,60,0.00,,SKC,0.00,0.00,VWS V14.01,2013-08-18 09:22:00,
2013-08-18 03:27:00,57.3,44.4,29.65,SSW,200,2.0,7.0,62,0.00,,SKC,0.00,0.00,VWS V14.01,2013-08-18 09:27:00,
2013-08-18 03:30:00,60.7,44.5,29.61,South,172,0.0,1.0,55,0.00,,SKC,0.00,0.00,VWS V14.01,2013-08-18 09:30:00,
2013-08-18 03:33:00,56.9,44.5,29.65,SSW,201,1.0,2.0,63,0.00,,SKC,0.00,0.00,VWS V14.01,2013-08-18 09:33:00,
2013-08-18 03:43:00,56.8,43.9,29.65,SSW,202,3.0,7.0,62,0.00,,SKC,0.00,0.00,VWS V14.01,2013-08-18 09:43:00,
2013-08-18 03:45:00,59.3,44.1,29.61,South,172,3.0,3.0,57,0.00,,SKC,0.00,0.00,VWS V14.01,2013-08-18 09:45:00,
2013-08-18 03:50:00,57.0,44.1,29.65,SSW,194,2.0,7.0,62,0.00,,SKC,0.00,0.00,VWS V14.01,2013-08-18 09:50:00,
2013-08-18 03:55:00,57.1,44.2,29.65,SSW,195,3.0,7.0,62,0.00,,SKC,0.00,0.00,VWS V14.01,2013-08-18 09:55:00,
2013-08-18 04:01:00,57.1,43.8,29.65,SSW,205,2.0,7.0,61,0.00,,SKC,0.00,0.00,VWS V14.01,2013-08-18 10:01:00,
2013-08-18 04:30:00,57.0,44.5,29.65,SSW,200,2.0,7.0,63,0.00,,SKC,0.00,0.00,VWS V14.01,2013-08-18 10:30:00,
2013-08-18 04:39:00,57.1,43.8,29.66,SSW,207,2.0,6.0,61,0.00,,SKC,0.00,0.00,VWS V14.01,2013-08-18 10:39:00,
2013-08-18 04:45:00,55.8,43.8,29.67,SSW,206,4.0,6.0,64,0.00,,SKC,0.00,0.00,VWS V14.01,2013-08-18 10:45:00,
2013-08-18 04:52:00,55.6,44.0,29.68,SSW,207,0.0,2.0,65,0.00,,SKC,0.00,0.00,VWS V14.01,2013-08-18 10:52:00,
2013-08-18 04:59:00,55.5,44.3,29.67,SSW,206,3.0,3.0,66,0.00,,SKC,0.00,0.00,VWS V14.01,2013-08-18 10:59:00,
2013-08-18 05:00:00,57.1,43.8,29.65,SSW,205,2.0,7.0,61,0.00,,SKC,0.00,0.00,VWS V14.01,2013-08-18 11:00:00,
2013-08-18 05:07:00,55.8,44.2,29.69,SSW,206,4.0,6.0,65,0.00,,SKC,0.00,0.00,VWS V14.01,2013-08-18 11:07:00,
2013-08-18 05:15:00,56.1,44.1,29.69,SSW,207,3.0,6.0,64,0.00,,SKC,0.00,0.00,VWS V14.01,2013-08-18 11:15:00,
2013-08-18 05:24:00,56.3,44.3,29.69,SSW,207,3.0,5.0,64,0.00,,SKC,0.00,0.00,VWS V14.01,2013-08-18 11:24:00,
2013-08-18 05:30:00,56.4,44.4,29.69,SSW,206,2.0,6.0,64,0.00,,SKC,0.00,0.00,VWS V14.01,2013-08-18 11:30:00,
2013-08-18 05:40:00,56.2,44.2,29.69,SSW,207,0.0,5.0,64,0.00,,SKC,0.00,0.00,VWS V14.01,2013-08-18 11:40:00,
2013-08-18 05:45:00,56.1,44.5,29.69,SSW,206,1.0,5.0,65,0.00,,SKC,0.00,0.00,VWS V14.01,2013-08-18 11:45:00,
2013-08-18 05:51:00,56.0,44.0,29.69,SSW,207,0.0,4.0,64,0.00,,SKC,0.00,0.00,VWS V14.01,2013-08-18 11:51:00,
2013-08-18 05:57:00,55.7,44.1,29.70,SSW,206,0.0,4.0,65,0.00,,SKC,0.00,0.00,VWS V14.01,2013-08-18 11:57:00,
2013-08-18 06:00:00,55.6,44.4,29.69,SSW,206,3.0,5.0,66,0.00,,SKC,0.00,0.00,VWS V14.01,2013-08-18 12:00:00,
2013-08-18 06:04:00,55.6,44.4,29.71,SSW,207,0.0,0.0,66,0.00,,SKC,0.00,0.00,VWS V14.01,2013-08-18 12:04:00,
2013-08-18 06:10:00,55.5,44.3,29.72,SSW,207,0.0,0.0,66,0.00,,SKC,0.00,0.00,VWS V14.01,2013-08-18 12:10:00,
2013-08-18 06:15:00,56.2,44.6,29.69,SSW,206,3.0,6.0,65,0.00,,SKC,0.00,0.00,VWS V14.01,2013-08-18 12:15:00,
2013-08-18 06:17:00,55.4,44.2,29.72,SSW,206,0.0,0.0,66,0.00,,SKC,0.00,0.00,VWS V14.01,2013-08-18 12:17:00,
2013-08-18 06:23:00,55.1,44.7,29.71,SSW,207,0.0,0.0,68,0.00,,SKC,0.00,5.00,VWS V14.01,2013-08-18 12:23:00,
2013-08-18 06:30:00,55.0,44.7,29.71,SSW,207,0.0,0.0,68,0.00,,SKC,0.00,19.00,VWS V14.01,2013-08-18 12:30:00,
2013-08-18 06:36:00,55.0,44.7,29.71,SSW,207,0.0,0.0,68,0.00,,SKC,0.00,23.00,VWS V14.01,2013-08-18 12:36:00,
2013-08-18 06:44:00,54.8,44.8,29.72,SSW,206,0.0,0.0,69,0.00,,SKC,0.00,25.00,VWS V14.01,2013-08-18 12:44:00,
2013-08-18 06:45:00,56.1,44.1,29.69,SSW,207,2.0,5.0,64,0.00,,SKC,0.00,0.00,VWS V14.01,2013-08-18 12:45:00,
2013-08-18 06:49:00,54.8,44.8,29.72,SSW,206,0.0,0.0,69,0.00,,SKC,0.00,23.00,VWS V14.01,2013-08-18 12:49:00,
2013-08-18 06:54:00,54.8,45.2,29.73,SSW,207,0.0,0.0,70,0.00,,SKC,0.00,19.00,VWS V14.01,2013-08-18 12:54:00,
2013-08-18 07:00:00,55.6,44.4,29.70,SSW,207,0.0,4.0,66,0.00,,SKC,0.00,0.00,VWS V14.01,2013-08-18 13:00:00,
2013-08-18 07:02:00,54.9,45.7,29.73,SSW,207,0.0,0.0,71,0.00,,SKC,0.00,19.00,VWS V14.01,2013-08-18 13:02:00,
2013-08-18 07:08:00,54.9,44.9,29.78,SSW,207,2.0,5.0,69,0.00,,SKC,0.00,23.00,VWS V14.01,2013-08-18 13:08:00,
2013-08-18 07:13:00,55.0,45.4,29.78,SSW,207,0.0,5.0,70,0.00,,SKC,0.00,25.00,VWS V14.01,2013-08-18 13:13:00,
2013-08-18 07:15:00,55.3,44.5,29.72,SSW,206,0.0,0.0,67,0.00,,SKC,0.00,0.00,VWS V14.01,2013-08-18 13:15:00,
2013-08-18 07:19:00,55.2,45.2,29.78,SSW,207,2.0,5.0,69,0.00,,SKC,0.00,26.00,VWS V14.01,2013-08-18 13:19:00,
2013-08-18 07:24:00,55.4,45.4,29.78,SSW,208,3.0,5.0,69,0.00,,SKC,0.00,35.00,VWS V14.01,2013-08-18 13:24:00,
2013-08-18 07:30:00,55.0,44.7,29.71,SSW,207,0.0,0.0,68,0.00,,SKC,0.00,21.00,VWS V14.01,2013-08-18 13:30:00,
2013-08-18 07:35:00,55.7,45.7,29.78,SSW,208,3.0,6.0,69,0.00,,SKC,0.00,53.00,VWS V14.01,2013-08-18 13:35:00,
2013-08-18 07:43:00,56.2,45.8,29.78,SSW,208,0.0,6.0,68,0.00,,SKC,0.00,58.00,VWS V14.01,2013-08-18 13:43:00,
2013-08-18 07:50:00,56.4,46.8,29.78,SSW,208,0.0,0.0,70,0.00,,SKC,0.00,63.00,VWS V14.01,2013-08-18 13:50:00,
2013-08-18 07:56:00,56.5,46.5,29.77,SSW,207,2.0,3.0,69,0.00,,SKC,0.00,86.00,VWS V14.01,2013-08-18 13:56:00,
2013-08-18 08:00:00,54.9,45.7,29.73,SSW,207,3.0,3.0,71,0.00,,SKC,0.00,19.00,VWS V14.01,2013-08-18 14:00:00,
2013-08-18 08:30:00,55.6,46.0,29.79,SSW,207,2.0,5.0,70,0.00,,SKC,0.00,53.00,VWS V14.01,2013-08-18 14:30:00,
2013-08-18 08:32:00,60.9,49.5,29.75,ESE,114,0.0,4.0,66,0.00,,SKC,0.00,399.00,VWS V14.01,2013-08-18 14:32:00,
2013-08-18 08:39:00,62.1,48.1,29.75,ESE,114,0.0,1.0,60,0.00,,SKC,0.00,431.00,VWS V14.01,2013-08-18 14:39:00,
2013-08-18 08:45:00,56.3,46.7,29.78,SSW,208,0.0,6.0,70,0.00,,SKC,0.00,60.00,VWS V14.01,2013-08-18 14:45:00,
2013-08-18 08:47:00,63.2,49.5,29.74,ENE,57,5.0,5.0,61,0.00,,SKC,0.00,360.00,VWS V14.01,2013-08-18 14:47:00,
2013-08-18 08:52:00,64.0,48.9,29.74,NE,51,1.0,5.0,58,0.00,,SKC,0.00,411.00,VWS V14.01,2013-08-18 14:52:00,
2013-08-18 08:58:00,64.7,48.7,29.73,NE,44,3.0,6.0,56,0.00,,SKC,0.00,438.00,VWS V14.01,2013-08-18 14:58:00,
2013-08-18 09:04:00,65.4,49.3,29.73,NE,39,1.0,5.0,56,0.00,,SKC,0.00,462.00,VWS V14.01,2013-08-18 15:04:00,
2013-08-18 09:10:00,66.0,48.9,29.72,ENE,78,1.0,6.0,54,0.00,,SKC,0.00,483.00,VWS V14.01,2013-08-18 15:10:00,
2013-08-18 09:16:00,66.7,48.5,29.73,NE,42,1.0,6.0,52,0.00,,SKC,0.00,501.00,VWS V14.01,2013-08-18 15:16:00,
2013-08-18 09:23:00,67.2,49.0,29.72,NE,42,2.0,4.0,52,0.00,,SKC,0.00,517.00,VWS V14.01,2013-08-18 15:23:00,
2013-08-18 09:29:00,67.9,49.7,29.71,ENE,68,4.0,5.0,52,0.00,,SKC,0.00,538.00,VWS V14.01,2013-08-18 15:29:00,
2013-08-18 09:30:00,60.9,49.5,29.75,ESE,114,0.0,4.0,66,0.00,,SKC,0.00,399.00,VWS V14.01,2013-08-18 15:30:00,
2013-08-18 09:35:00,68.5,48.6,29.71,NE,55,2.0,4.0,49,0.00,,SKC,0.00,557.00,VWS V14.01,2013-08-18 15:35:00,
2013-08-18 09:41:00,69.1,48.6,29.71,ENE,65,0.0,5.0,48,0.00,,SKC,0.00,575.00,VWS V14.01,2013-08-18 15:41:00,
2013-08-18 09:45:00,63.2,49.5,29.74,ENE,57,5.0,5.0,61,0.00,,SKC,0.00,360.00,VWS V14.01,2013-08-18 15:45:00,
2013-08-18 09:46:00,69.7,48.6,29.69,ENE,64,1.0,5.0,47,0.00,,SKC,0.00,589.00,VWS V14.01,2013-08-18 15:46:00,
2013-08-18 09:53:00,70.6,48.8,29.69,ENE,65,2.0,4.0,46,0.00,,SKC,0.00,571.00,VWS V14.01,2013-08-18 15:53:00,
2013-08-18 09:59:00,71.3,50.0,29.68,ENE,65,2.0,4.0,47,0.00,,SKC,0.00,645.00,VWS V14.01,2013-08-18 15:59:00,
2013-08-18 10:00:00,65.1,49.5,29.72,NE,48,0.0,6.0,57,0.00,,SKC,0.00,452.00,VWS V14.01,2013-08-18 16:00:00,
2013-08-18 10:06:00,72.2,49.7,29.68,ENE,64,0.0,1.0,45,0.00,,SKC,0.00,670.00,VWS V14.01,2013-08-18 16:06:00,
2013-08-18 10:12:00,73.1,48.7,29.68,ENE,64,0.0,3.0,42,0.00,,SKC,0.00,675.00,VWS V14.01,2013-08-18 16:12:00,
2013-08-18 10:15:00,66.7,48.5,29.73,NE,42,1.0,6.0,52,0.00,,SKC,0.00,501.00,VWS V14.01,2013-08-18 16:15:00,
2013-08-18 10:18:00,74.1,49.6,29.67,ENE,64,2.0,3.0,42,0.00,,SKC,0.00,691.00,VWS V14.01,2013-08-18 16:18:00,
2013-08-18 10:24:00,74.7,48.8,29.66,ENE,64,2.0,3.0,40,0.00,,SKC,0.00,701.00,VWS V14.01,2013-08-18 16:24:00,
2013-08-18 10:30:00,75.7,49.7,29.65,ENE,64,2.0,3.0,40,0.00,,SKC,0.00,710.00,VWS V14.01,2013-08-18 16:30:00,
2013-08-18 10:36:00,76.6,50.5,29.65,ENE,63,3.0,4.0,40,0.00,,SKC,0.00,729.00,VWS V14.01,2013-08-18 16:36:00,
2013-08-18 10:42:00,77.1,50.3,29.65,NE,42,3.0,6.0,39,0.00,,SKC,0.00,744.00,VWS V14.01,2013-08-18 16:42:00,
2013-08-18 10:45:00,69.7,48.6,29.69,ENE,64,1.0,5.0,47,0.00,,SKC,0.00,589.00,VWS V14.01,2013-08-18 16:45:00,
2013-08-18 10:48:00,77.5,50.6,29.64,NE,38,0.0,6.0,39,0.00,,SKC,0.00,763.00,VWS V14.01,2013-08-18 16:48:00,
2013-08-18 10:54:00,77.9,51.0,29.64,NE,47,0.0,6.0,39,0.00,,SKC,0.00,780.00,VWS V14.01,2013-08-18 16:54:00,
2013-08-18 11:00:00,78.4,50.7,29.64,NNE,15,4.0,6.0,38,0.00,,SKC,0.00,610.00,VWS V14.01,2013-08-18 17:00:00,
2013-08-18 11:06:00,79.3,52.2,29.63,NNE,30,2.0,6.0,39,0.00,,SKC,0.00,707.00,VWS V14.01,2013-08-18 17:06:00,
2013-08-18 11:12:00,80.2,50.8,29.63,NE,38,1.0,6.0,36,0.00,,SKC,0.00,904.00,VWS V14.01,2013-08-18 17:12:00,
2013-08-18 11:15:00,73.9,49.4,29.67,ENE,64,0.0,3.0,42,0.00,,SKC,0.00,687.00,VWS V14.01,2013-08-18 17:15:00,
2013-08-18 11:18:00,80.8,50.6,29.62,NE,39,5.0,5.0,35,0.00,,SKC,0.00,963.00,VWS V14.01,2013-08-18 17:18:00,
2013-08-18 11:24:00,81.5,50.5,29.61,NNE,29,2.0,5.0,34,0.00,,SKC,0.00,986.00,VWS V14.01,2013-08-18 17:24:00,
2013-08-18 11:30:00,82.7,49.9,29.59,NE,44,3.0,6.0,32,0.00,,SKC,0.00,909.00,VWS V14.01,2013-08-18 17:30:00,
2013-08-18 11:36:00,82.3,53.5,29.58,NNE,12,3.0,6.0,37,0.00,,SKC,0.00,204.00,VWS V14.01,2013-08-18 17:36:00,
2013-08-18 11:43:00,80.5,51.1,29.61,NE,36,4.0,8.0,36,0.00,,SKC,0.00,178.00,VWS V14.01,2013-08-18 17:43:00,
2013-08-18 11:45:00,77.4,49.8,29.65,NE,42,1.0,6.0,38,0.00,,SKC,0.00,761.00,VWS V14.01,2013-08-18 17:45:00,
2013-08-18 11:49:00,78.7,50.3,29.62,NNE,19,0.0,5.0,37,0.00,,SKC,0.00,171.00,VWS V14.01,2013-08-18 17:49:00,
2013-08-18 11:55:00,77.9,50.3,29.63,NNE,19,4.0,5.0,38,0.00,,SKC,0.00,183.00,VWS V14.01,2013-08-18 17:55:00,
2013-08-18 12:00:00,78.7,51.7,29.64,NNE,14,0.0,6.0,39,0.00,,SKC,0.00,670.00,VWS V14.01,2013-08-18 18:00:00,
2013-08-18 12:01:00,77.0,49.5,29.63,NNE,16,2.0,6.0,38,0.00,,SKC,0.00,158.00,VWS V14.01,2013-08-18 18:01:00,
2013-08-18 12:07:00,76.5,49.0,29.64,NNE,16,0.0,5.0,38,0.00,,SKC,0.00,102.00,VWS V14.01,2013-08-18 18:07:00,
2013-08-18 12:13:00,76.2,48.8,29.64,NNE,15,0.0,5.0,38,0.00,,SKC,0.00,97.00,VWS V14.01,2013-08-18 18:13:00,
2013-08-18 12:15:00,80.5,51.9,29.61,NE,38,2.0,6.0,37,0.00,,SKC,0.00,946.00,VWS V14.01,2013-08-18 18:15:00,
2013-08-18 12:19:00,75.9,53.7,29.63,WSW,242,0.0,3.0,46,0.00,,SKC,0.00,86.00,VWS V14.01,2013-08-18 18:19:00,
2013-08-18 12:25:00,75.5,55.0,29.63,WSW,255,1.0,3.0,49,0.00,,SKC,0.00,90.00,VWS V14.01,2013-08-18 18:25:00,
2013-08-18 12:30:00,82.7,49.9,29.60,North,11,4.0,6.0,32,0.00,,SKC,0.00,909.00,VWS V14.01,2013-08-18 18:30:00,
2013-08-18 12:31:00,74.0,55.8,29.65,SSE,149,0.0,6.0,53,0.00,,SKC,0.00,93.00,VWS V14.01,2013-08-18 18:31:00,
2013-08-18 12:37:00,72.3,58.1,29.65,WSW,255,2.0,4.0,61,0.00,,SKC,0.00,111.00,VWS V14.01,2013-08-18 18:37:00,
2013-08-18 12:43:00,70.4,56.3,29.67,SSE,153,5.0,5.0,61,0.00,,SKC,0.00,125.00,VWS V14.01,2013-08-18 18:43:00,
2013-08-18 12:45:00,79.3,50.1,29.62,NNE,28,1.0,8.0,36,0.00,,SKC,0.00,174.00,VWS V14.01,2013-08-18 18:45:00,
2013-08-18 12:50:00,68.9,57.9,29.67,SW,235,0.0,1.0,68,0.00,,SKC,0.00,137.00,VWS V14.01,2013-08-18 18:50:00,
2013-08-18 12:56:00,68.3,58.2,29.67,SW,234,0.0,1.0,70,0.00,,SKC,0.00,162.00,VWS V14.01,2013-08-18 18:56:00,
2013-08-18 13:00:00,77.0,49.5,29.63,NNE,16,0.0,6.0,38,0.00,,SKC,0.00,158.00,VWS V14.01,2013-08-18 19:00:00,
2013-08-18 13:01:00,67.5,57.0,29.67,SE,144,7.0,7.0,69,0.00,,SKC,0.00,172.00,VWS V14.01,2013-08-18 19:01:00,
2013-08-18 13:08:00,66.6,57.3,29.70,South,183,0.0,7.0,72,0.00,,SKC,0.00,156.00,VWS V14.01,2013-08-18 19:08:00,
2013-08-18 13:14:00,66.1,56.8,29.70,South,169,6.0,7.0,72,0.00,,SKC,0.00,149.00,VWS V14.01,2013-08-18 19:14:00,
2013-08-18 13:15:00,76.0,50.6,29.64,SW,214,0.0,5.0,41,0.00,,SKC,0.00,90.00,VWS V14.01,2013-08-18 19:15:00,
2013-08-18 13:20:00,66.0,57.1,29.70,South,182,1.0,6.0,73,0.00,,SKC,0.00,163.00,VWS V14.01,2013-08-18 19:20:00,
2013-08-18 13:26:00,66.1,57.6,29.70,South,183,3.0,6.0,74,0.00,,SKC,0.00,218.00,VWS V14.01,2013-08-18 19:26:00,
2013-08-18 13:30:00,73.9,55.7,29.64,SSE,149,3.0,6.0,53,0.00,,SKC,0.00,95.00,VWS V14.01,2013-08-18 19:30:00,
2013-08-18 13:31:00,66.7,58.2,29.69,South,184,2.0,6.0,74,0.00,,SKC,0.00,464.00,VWS V14.01,2013-08-18 19:31:00,
2013-08-18 13:37:00,68.3,58.2,29.68,SSE,148,4.0,6.0,70,0.00,,SKC,0.00,538.00,VWS V14.01,2013-08-18 19:37:00,
2013-08-18 13:43:00,70.3,57.1,29.66,SSE,163,6.0,10.0,63,0.00,,SKC,0.00,622.00,VWS V14.01,2013-08-18 19:43:00,
2013-08-18 13:45:00,69.4,57.1,29.67,SW,234,0.0,5.0,65,0.00,,SKC,0.00,130.00,VWS V14.01,2013-08-18 19:45:00,
2013-08-18 13:49:00,71.9,57.3,29.64,South,175,12.0,12.0,60,0.00,,SKC,0.00,628.00,VWS V14.01,2013-08-18 19:49:00,
2013-08-18 13:55:00,73.0,55.4,29.65,South,180,3.0,12.0,54,0.00,,SKC,0.00,490.00,VWS V14.01,2013-08-18 19:55:00,
2013-08-18 14:00:00,67.5,57.0,29.67,SE,144,7.0,7.0,69,0.00,,SKC,0.00,172.00,VWS V14.01,2013-08-18 20:00:00,
2013-08-18 14:01:00,73.9,58.2,29.63,SSE,167,6.0,12.0,58,0.00,,SKC,0.00,566.00,VWS V14.01,2013-08-18 20:01:00,
2013-08-18 14:07:00,74.8,58.1,29.65,SSE,152,1.0,10.0,56,0.00,,SKC,0.00,751.00,VWS V14.01,2013-08-18 20:07:00,
2013-08-18 14:13:00,77.0,58.6,29.64,SE,144,3.0,10.0,53,0.00,,SKC,0.00,715.00,VWS V14.01,2013-08-18 20:13:00,
2013-08-18 14:15:00,66.1,56.4,29.70,South,180,3.0,7.0,71,0.00,,SKC,0.00,153.00,VWS V14.01,2013-08-18 20:15:00,
2013-08-18 14:20:00,77.7,55.9,29.62,South,169,6.0,6.0,47,0.00,,SKC,0.00,714.00,VWS V14.01,2013-08-18 20:20:00,
2013-08-18 14:28:00,78.4,56.5,29.62,SSE,153,3.0,10.0,47,0.00,,SKC,0.00,809.00,VWS V14.01,2013-08-18 20:28:00,
2013-08-18 14:30:00,66.7,58.2,29.69,South,184,2.0,6.0,74,0.00,,SKC,0.00,464.00,VWS V14.01,2013-08-18 20:30:00,
2013-08-18 14:34:00,80.1,55.0,29.61,SE,138,0.0,10.0,42,0.00,,SKC,0.00,921.00,VWS V14.01,2013-08-18 20:34:00,
2013-08-18 14:40:00,81.7,52.9,29.59,SSE,161,0.0,10.0,37,0.00,,SKC,0.00,599.00,VWS V14.01,2013-08-18 20:40:00,
2013-08-18 14:45:00,71.5,58.3,29.66,SSE,159,5.0,10.0,63,0.00,,SKC,0.00,656.00,VWS V14.01,2013-08-18 20:45:00,
2013-08-18 14:46:00,82.0,51.7,29.59,SSW,206,2.0,10.0,35,0.00,,SKC,0.00,417.00,VWS V14.01,2013-08-18 20:46:00,
2013-08-18 14:52:00,81.8,49.9,29.59,SSW,209,3.0,9.0,33,0.00,,SKC,0.00,573.00,VWS V14.01,2013-08-18 20:52:00,
2013-08-18 14:58:00,81.4,50.4,29.59,SSW,197,3.0,9.0,34,0.00,,SKC,0.00,287.00,VWS V14.01,2013-08-18 20:58:00,
2013-08-18 15:00:00,73.9,58.2,29.63,South,171,5.0,12.0,58,0.00,,SKC,0.00,577.00,VWS V14.01,2013-08-18 21:00:00,
2013-08-18 15:05:00,81.1,50.9,29.60,SSW,198,0.0,3.0,35,0.00,,SKC,0.00,318.00,VWS V14.01,2013-08-18 21:05:00,
2013-08-18 15:12:00,81.7,52.9,29.60,SSW,198,0.0,4.0,37,0.00,,SKC,0.00,861.00,VWS V14.01,2013-08-18 21:12:00,
2013-08-18 15:15:00,77.5,56.3,29.63,South,175,5.0,10.0,48,0.00,,SKC,0.00,592.00,VWS V14.01,2013-08-18 21:15:00,
2013-08-18 15:19:00,83.0,52.6,29.58,SSE,155,9.0,9.0,35,0.00,,SKC,0.00,775.00,VWS V14.01,2013-08-18 21:19:00,
2013-08-18 15:25:00,84.0,51.0,29.58,SSE,162,0.0,9.0,32,0.00,,SKC,0.00,847.00,VWS V14.01,2013-08-18 21:25:00,
2013-08-18 15:31:00,84.5,48.8,29.58,SE,142,0.0,10.0,29,0.00,,SKC,0.00,874.00,VWS V14.01,2013-08-18 21:31:00,
2013-08-18 15:38:00,84.1,47.5,29.59,SSW,209,5.0,6.0,28,0.00,,SKC,0.00,642.00,VWS V14.01,2013-08-18 21:38:00,
2013-08-18 15:44:00,85.0,50.1,29.57,SSW,202,0.0,6.0,30,0.00,,SKC,0.00,877.00,VWS V14.01,2013-08-18 21:44:00,
2013-08-18 15:45:00,82.0,51.7,29.59,SSW,206,2.0,10.0,35,0.00,,SKC,0.00,417.00,VWS V14.01,2013-08-18 21:45:00,
2013-08-18 15:50:00,85.7,49.8,29.56,SSE,147,0.0,6.0,29,0.00,,SKC,0.00,738.00,VWS V14.01,2013-08-18 21:50:00,
2013-08-18 15:57:00,85.6,46.8,29.57,SSW,201,1.0,6.0,26,0.00,,SKC,0.00,780.00,VWS V14.01,2013-08-18 21:57:00,
2013-08-18 16:00:00,81.2,49.4,29.60,SSW,198,3.0,9.0,33,0.00,,SKC,0.00,299.00,VWS V14.01,2013-08-18 22:00:00,
2013-08-18 16:03:00,85.9,48.1,29.56,SE,138,1.0,1.0,27,0.00,,SKC,0.00,605.00,VWS V14.01,2013-08-18 22:03:00,
2013-08-18 16:09:00,86.3,48.4,29.55,SE,128,0.0,6.0,27,0.00,,SKC,0.00,754.00,VWS V14.01,2013-08-18 22:09:00,
2013-08-18 16:15:00,86.5,48.6,29.55,SSE,159,3.0,8.0,27,0.00,,SKC,0.00,775.00,VWS V14.01,2013-08-18 22:15:00,
2013-08-18 16:21:00,86.0,48.2,29.55,SSW,200,1.0,6.0,27,0.00,,SKC,0.00,752.00,VWS V14.01,2013-08-18 22:21:00,
2013-08-18 16:28:00,85.8,48.0,29.55,SE,132,1.0,7.0,27,0.00,,SKC,0.00,731.00,VWS V14.01,2013-08-18 22:28:00,
2013-08-18 16:30:00,84.4,48.7,29.58,SE,142,1.0,10.0,29,0.00,,SKC,0.00,874.00,VWS V14.01,2013-08-18 22:30:00,
2013-08-18 16:34:00,85.8,47.0,29.55,SE,145,5.0,9.0,26,0.00,,SKC,0.00,174.00,VWS V14.01,2013-08-18 22:34:00,
2013-08-18 16:40:00,85.2,46.5,29.56,SE,146,1.0,9.0,26,0.00,,SKC,0.00,105.00,VWS V14.01,2013-08-18 22:40:00,
2013-08-18 16:45:00,85.5,49.7,29.57,SSW,202,0.0,6.0,29,0.00,,SKC,0.00,877.00,VWS V14.01,2013-08-18 22:45:00,
2013-08-18 16:46:00,84.3,44.7,29.56,SSW,202,4.0,9.0,25,0.00,,SKC,0.00,104.00,VWS V14.01,2013-08-18 22:46:00,
2013-08-18 16:52:00,83.8,46.3,29.56,SW,217,2.0,4.0,27,0.00,,SKC,0.00,86.00,VWS V14.01,2013-08-18 22:52:00,
2013-08-18 16:58:00,82.8,48.2,29.57,NE,46,2.0,5.0,30,0.00,,SKC,0.00,70.00,VWS V14.01,2013-08-18 22:58:00,
2013-08-18 17:00:00,85.7,48.9,29.56,SE,137,0.0,6.0,28,0.00,,SKC,0.00,605.00,VWS V14.01,2013-08-18 23:00:00,
2013-08-18 17:06:00,81.3,46.0,29.61,NNW,331,4.0,14.0,29,0.00,,SKC,0.00,49.00,VWS V14.01,2013-08-18 23:06:00,
2013-08-18 17:12:00,80.1,46.8,29.62,NNE,13,5.0,14.0,31,0.00,,SKC,0.00,37.00,VWS V14.01,2013-08-18 23:12:00,
2013-08-18 17:15:00,86.4,47.5,29.55,SE,132,6.0,8.0,26,0.00,,SKC,0.00,775.00,VWS V14.01,2013-08-18 23:15:00,
2013-08-18 17:18:00,79.0,57.1,29.62,NNW,329,2.0,5.0,47,0.02,,SKC,0.02,25.00,VWS V14.01,2013-08-18 23:18:00,
2013-08-18 17:25:00,75.7,59.4,29.65,WNW,288,0.0,6.0,57,0.09,,SKC,0.09,21.00,VWS V14.01,2013-08-18 23:25:00,
2013-08-18 17:30:00,85.9,48.1,29.54,South,173,9.0,9.0,27,0.00,,SKC,0.00,735.00,VWS V14.01,2013-08-18 23:30:00,
2013-08-18 17:31:00,71.2,57.1,29.68,WNW,296,9.0,14.0,61,0.14,,SKC,0.14,18.00,VWS V14.01,2013-08-18 23:31:00,
2013-08-18 17:37:00,67.0,57.3,29.73,West,259,3.0,6.0,71,0.21,,SKC,0.21,18.00,VWS V14.01,2013-08-18 23:37:00,
2013-08-18 17:43:00,65.0,56.9,29.75,SW,224,4.0,6.0,75,0.22,,SKC,0.22,18.00,VWS V14.01,2013-08-18 23:43:00,
2013-08-18 17:45:00,84.3,44.7,29.56,SSW,202,3.0,9.0,25,0.00,,SKC,0.00,104.00,VWS V14.01,2013-08-18 23:45:00,
2013-08-18 17:49:00,63.7,56.7,29.76,WSW,241,0.0,2.0,78,0.23,,SKC,0.23,18.00,VWS V14.01,2013-08-18 23:49:00,
2013-08-18 17:55:00,62.7,56.5,29.78,WSW,246,1.0,5.0,80,0.23,,SKC,0.23,16.00,VWS V14.01,2013-08-18 23:55:00,
2013-08-18 18:00:00,82.3,47.8,29.58,North,350,3.0,8.0,30,0.00,,SKC,0.00,60.00,VWS V14.01,2013-08-19 00:00:00,
2013-08-18 18:01:00,62.0,56.5,29.77,South,180,4.0,5.0,82,0.23,,SKC,0.23,16.00,VWS V14.01,2013-08-19 00:01:00,
2013-08-18 18:06:00,61.5,56.6,29.79,South,181,0.0,5.0,84,0.23,,SKC,0.23,14.00,VWS V14.01,2013-08-19 00:06:00,
2013-08-18 18:13:00,61.1,56.6,29.79,South,181,0.0,5.0,85,0.23,,SKC,0.23,16.00,VWS V14.01,2013-08-19 00:13:00,
2013-08-18 18:15:00,79.6,50.3,29.62,WNW,286,1.0,14.0,36,0.00,,SKC,0.00,28.00,VWS V14.01,2013-08-19 00:15:00,
2013-08-18 18:30:00,70.2,57.0,29.69,WSW,257,6.0,14.0,63,0.16,,SKC,0.16,16.00,VWS V14.01,2013-08-19 00:30:00,
2013-08-18 18:31:00,61.0,56.5,29.79,South,181,0.0,5.0,85,0.23,,SKC,0.23,16.00,VWS V14.01,2013-08-19 00:31:00,
2013-08-18 18:39:00,60.2,56.6,29.79,SSW,202,3.0,5.0,88,0.07,,SKC,0.23,83.00,VWS V14.01,2013-08-19 00:39:00,
2013-08-18 18:45:00,60.4,56.2,29.79,South,169,3.0,12.0,86,0.07,,SKC,0.23,105.00,VWS V14.01,2013-08-19 00:45:00,
2013-08-18 18:52:00,60.7,56.8,29.77,SSE,167,2.0,5.0,87,0.01,,SKC,0.23,121.00,VWS V14.01,2013-08-19 00:52:00,
2013-08-18 18:58:00,61.0,57.4,29.77,SSE,167,3.0,5.0,88,0.01,,SKC,0.23,120.00,VWS V14.01,2013-08-19 00:58:00,
2013-08-18 19:00:00,62.0,56.5,29.77,South,180,4.0,5.0,82,0.23,,SKC,0.23,16.00,VWS V14.01,2013-08-19 01:00:00,
2013-08-18 19:03:00,61.1,57.5,29.76,WSW,241,4.0,6.0,88,0.00,,SKC,0.23,95.00,VWS V14.01,2013-08-19 01:03:00,
2013-08-18 19:09:00,61.1,56.2,29.77,SW,215,3.0,7.0,84,0.00,,SKC,0.23,53.00,VWS V14.01,2013-08-19 01:09:00,
2013-08-18 19:16:00,61.3,56.1,29.76,SW,223,3.0,7.0,83,0.00,,SKC,0.23,42.00,VWS V14.01,2013-08-19 01:16:00,
2013-08-18 19:30:00,60.3,56.7,29.79,South,186,2.0,5.0,88,0.23,,SKC,0.23,67.00,VWS V14.01,2013-08-19 01:30:00,
2013-08-18 19:45:00,60.5,56.6,29.78,South,169,3.0,12.0,87,0.07,,SKC,0.23,109.00,VWS V14.01,2013-08-19 01:45:00,
2013-08-18 19:57:00,61.4,54.1,29.78,SW,225,5.0,6.0,77,0.00,,SKC,0.23,0.00,VWS V14.01,2013-08-19 01:57:00,
2013-08-18 20:00:00,61.1,57.5,29.78,West,273,4.0,5.0,88,0.01,,SKC,0.23,100.00,VWS V14.01,2013-08-19 02:00:00,
2013-08-18 20:04:00,61.8,53.4,29.72,WSW,239,2.0,14.0,74,0.00,,SKC,0.23,0.00,VWS V14.01,2013-08-19 02:04:00,
2013-08-18 20:11:00,62.2,53.8,29.73,NNE,22,0.0,14.0,74,0.00,,SKC,0.23,0.00,VWS V14.01,2013-08-19 02:11:00,
2013-08-18 20:15:00,61.4,55.9,29.77,SW,223,3.0,7.0,82,0.00,,SKC,0.23,33.00,VWS V14.01,2013-08-19 02:15:00,
2013-08-18 20:17:00,62.2,54.2,29.73,South,182,4.0,14.0,75,0.00,,SKC,0.23,0.00,VWS V14.01,2013-08-19 02:17:00,
2013-08-18 20:24:00,62.0,54.0,29.72,SSW,195,4.0,7.0,75,0.00,,SKC,0.23,0.00,VWS V14.01,2013-08-19 02:24:00,
2013-08-18 20:29:00,61.7,54.1,29.71,SSW,193,4.0,7.0,76,0.00,,SKC,0.23,0.00,VWS V14.01,2013-08-19 02:29:00,
2013-08-18 20:35:00,61.8,52.7,29.71,West,272,12.0,12.0,72,0.00,,SKC,0.23,0.00,VWS V14.01,2013-08-19 02:35:00,
2013-08-18 20:41:00,62.3,52.4,29.72,SSW,206,9.0,14.0,70,0.00,,SKC,0.23,0.00,VWS V14.01,2013-08-19 02:41:00,
2013-08-18 20:46:00,62.7,52.4,29.71,SW,230,5.0,14.0,69,0.00,,SKC,0.23,0.00,VWS V14.01,2013-08-19 02:46:00,
2013-08-18 20:55:00,62.9,52.6,29.71,WSW,258,5.0,12.0,69,0.00,,SKC,0.23,0.00,VWS V14.01,2013-08-19 02:55:00,
2013-08-18 21:00:00,62.8,52.9,29.72,West,269,4.0,12.0,70,0.00,,SKC,0.23,0.00,VWS V14.01,2013-08-19 03:00:00,
2013-08-18 21:07:00,62.3,53.2,29.68,South,186,9.0,10.0,72,0.00,,SKC,0.23,0.00,VWS V14.01,2013-08-19 03:07:00,
2013-08-18 21:13:00,61.8,53.1,29.68,SSE,165,4.0,10.0,73,0.00,,SKC,0.23,0.00,VWS V14.01,2013-08-19 03:13:00,
2013-08-18 21:15:00,62.2,54.2,29.73,South,182,4.0,14.0,75,0.00,,SKC,0.23,0.00,VWS V14.01,2013-08-19 03:15:00,
2013-08-18 21:18:00,61.4,53.4,29.70,SE,129,6.0,6.0,75,0.00,,SKC,0.23,0.00,VWS V14.01,2013-08-19 03:18:00,
2013-08-18 21:24:00,61.1,53.1,29.70,SE,134,3.0,6.0,75,0.00,,SKC,0.23,0.00,VWS V14.01,2013-08-19 03:24:00,
2013-08-18 21:29:00,60.5,52.9,29.70,South,170,4.0,8.0,76,0.00,,SKC,0.23,0.00,VWS V14.01,2013-08-19 03:29:00,
2013-08-18 21:30:00,61.6,52.9,29.71,WSW,243,10.0,10.0,73,0.00,,SKC,0.23,0.00,VWS V14.01,2013-08-19 03:30:00,
2013-08-18 21:36:00,60.2,52.6,29.71,South,170,3.0,8.0,76,0.00,,SKC,0.23,0.00,VWS V14.01,2013-08-19 03:36:00,
2013-08-18 21:41:00,59.8,52.9,29.71,South,170,0.0,8.0,78,0.00,,SKC,0.23,0.00,VWS V14.01,2013-08-19 03:41:00,
2013-08-18 21:45:00,62.7,52.4,29.71,SW,230,5.0,14.0,69,0.00,,SKC,0.23,0.00,VWS V14.01,2013-08-19 03:45:00,
2013-08-18 21:46:00,59.5,52.3,29.72,South,170,0.0,8.0,77,0.00,,SKC,0.23,0.00,VWS V14.01,2013-08-19 03:46:00,
2013-08-18 22:00:00,62.7,52.8,29.72,West,269,3.0,12.0,70,0.00,,SKC,0.23,0.00,VWS V14.01,2013-08-19 04:00:00,
2013-08-18 22:15:00,61.5,53.2,29.68,SE,132,3.0,10.0,74,0.00,,SKC,0.23,0.00,VWS V14.01,2013-08-19 04:15:00,
2013-08-18 22:25:00,59.5,52.3,29.72,South,171,0.0,0.0,77,0.00,,SKC,0.23,0.00,VWS V14.01,2013-08-19 04:25:00,
2013-08-18 22:28:00,56.9,51.5,29.69,South,171,5.0,5.0,82,0.00,,SKC,0.23,0.00,VWS V14.01,2013-08-19 04:28:00,
2013-08-18 22:31:00,56.7,51.3,29.70,South,171,1.0,5.0,82,0.00,,SKC,0.23,0.00,VWS V14.01,2013-08-19 04:31:00,
2013-08-18 22:33:00,56.6,51.2,29.70,South,171,0.0,3.0,82,0.00,,SKC,0.23,0.00,VWS V14.01,2013-08-19 04:33:00,
2013-08-18 22:38:00,56.6,51.5,29.71,South,171,1.0,3.0,83,0.00,,SKC,0.23,0.00,VWS V14.01,2013-08-19 04:38:00,
2013-08-18 22:44:00,56.4,51.3,29.72,South,171,0.0,3.0,83,0.00,,SKC,0.23,0.00,VWS V14.01,2013-08-19 04:44:00,
2013-08-18 22:45:00,59.5,52.3,29.72,South,170,0.0,8.0,77,0.00,,SKC,0.23,0.00,VWS V14.01,2013-08-19 04:45:00,
2013-08-18 22:54:00,56.1,51.0,29.72,South,171,2.0,5.0,83,0.00,,SKC,0.23,0.00,VWS V14.01,2013-08-19 04:54:00,
2013-08-18 22:59:00,55.8,51.0,29.72,South,171,1.0,5.0,84,0.00,,SKC,0.23,0.00,VWS V14.01,2013-08-19 04:59:00,
2013-08-18 23:06:00,55.7,50.6,29.73,South,171,2.0,4.0,83,0.00,,SKC,0.23,0.00,VWS V14.01,2013-08-19 05:06:00,
2013-08-18 23:14:00,55.5,50.4,29.74,South,171,2.0,4.0,83,0.00,,SKC,0.23,0.00,VWS V14.01,2013-08-19 05:14:00,
2013-08-18 23:22:00,55.5,50.4,29.74,South,171,0.0,2.0,83,0.00,,SKC,0.23,0.00,VWS V14.01,2013-08-19 05:22:00,
2013-08-18 23:30:00,55.4,50.3,29.74,South,171,2.0,3.0,83,0.00,,SKC,0.23,0.00,VWS V14.01,2013-08-19 05:30:00,
2013-08-18 23:35:00,55.2,50.5,29.75,South,171,0.0,0.0,84,0.00,,SKC,0.23,0.00,VWS V14.01,2013-08-19 05:35:00,
2013-08-18 23:40:00,55.0,49.9,29.74,South,171,0.0,0.0,83,0.00,,SKC,0.23,0.00,VWS V14.01,2013-08-19 05:40:00,
2013-08-18 23:45:00,56.3,51.2,29.72,South,171,3.0,3.0,83,0.00,,SKC,0.23,0.00,VWS V14.01,2013-08-19 05:45:00,
2013-08-18 23:50:00,54.5,49.8,29.75,South,171,0.0,3.0,84,0.00,,SKC,0.23,0.00,VWS V14.01,2013-08-19 05:50:00,
2013-08-18 23:56:00,54.3,49.9,29.76,South,171,0.0,3.0,85,0.00,,SKC,0.23,0.00,VWS V14.01,2013-08-19 05:56:00,